ADDS METAR Data INFO
IDs: Format: Raw Decoded Include TAF

Data at: 1951 UTC 14 Aug 2018

KGGI 141935Z AUTO 14005KT 10SM CLR 29/21 A2995 RMK AO2 T02860209
KGGI 141915Z AUTO 09007KT 10SM CLR 28/22 A2996 RMK AO2 T02820215
KGGI 141855Z AUTO 11004KT 10SM CLR 28/22 A2996 RMK AO2 T02790218
KGGI 141835Z AUTO 13005KT 10SM CLR 27/21 A2997 RMK AO2 T02720209
KGGI 141815Z AUTO 12004KT 10SM CLR 27/21 A2997 RMK AO2 T02680209
KGGI 141755Z AUTO 15005KT 10SM CLR 27/21 A2997 RMK AO2 T02720212 10274 20191
KGGI 141735Z AUTO 15003KT 10SM CLR 27/21 A2998 RMK AO2 T02730209
KGGI 141715Z AUTO 14003KT 10SM CLR 27/21 A2998 RMK AO2 T02710210
KGGI 141655Z AUTO 15004KT 10SM CLR 27/21 A2998 RMK AO2 T02680209
KGGI 141635Z AUTO 14004KT 10SM CLR 27/21 A2998 RMK AO2 T02660208
KGGI 141615Z AUTO 13003KT 10SM CLR 26/21 A2998 RMK AO2 T02630209
KGGI 141555Z AUTO 00000KT 10SM CLR 26/20 A2998 RMK AO2 T02550204
KGGI 141535Z AUTO 00000KT 10SM CLR 24/20 A2998 RMK AO2 T02360197
KGGI 141515Z AUTO 00000KT 10SM CLR 23/19 A2998 RMK AO2 T02320191
KGGI 141455Z AUTO 00000KT 10SM CLR 23/19 A2999 RMK AO2 T02290188
KGGI 141435Z AUTO 14004KT 10SM CLR 23/19 A2998 RMK AO2 T02250186
KGGI 141415Z AUTO 15003KT 10SM SCT075 22/18 A2998 RMK AO2 T02210184
KGGI 141355Z AUTO 00000KT 10SM SCT075 21/19 A2998 RMK AO2 T02130185
KGGI 141335Z AUTO 00000KT 10SM CLR 21/18 A2998 RMK AO2 T02100181
KGGI 141315Z AUTO 00000KT 10SM CLR 21/18 A2998 RMK AO2 T02050179
KGGI 141255Z AUTO 00000KT 10SM CLR 20/18 A2998 RMK AO2 T02000175
KGGI 141235Z AUTO 00000KT 10SM CLR 19/17 A2998 RMK AO2 T01940171
KGGI 141215Z AUTO 00000KT 10SM CLR 19/17 A2998 RMK AO2 T01920169
KGGI 141155Z AUTO 00000KT 10SM CLR 19/17 A2997 RMK AO2 T01900167 10204 20178
KGGI 141135Z AUTO 00000KT 7SM CLR 18/17 A2997 RMK AO2 T01790165
KGGI 141115Z AUTO 00000KT 10SM CLR 19/17 A2997 RMK AO2 T01880165
KGGI 141055Z AUTO 00000KT 10SM SCT080 19/17 A2997 RMK AO2 T01860165
KGGI 141035Z AUTO 00000KT 10SM SCT070 SCT080 19/17 A2997 RMK AO2 T01900165
KGGI 141015Z AUTO 11004KT 10SM SCT070 18/17 A2997 RMK AO2 T01820166
KGGI 140955Z AUTO 11003KT 10SM SCT070 19/17 A2997 RMK AO2 T01880166
KGGI 140935Z AUTO 11004KT 10SM SCT070 19/17 A2998 RMK AO2 T01900167
KGGI 140915Z AUTO 11003KT 10SM BKN070 19/17 A2998 RMK AO2 T01900168
KGGI 140855Z AUTO 11003KT 10SM BKN070 19/17 A2998 RMK AO2 T01850167
KGGI 140835Z AUTO 11003KT 10SM BKN070 19/17 A2998 RMK AO2 T01850168
KGGI 140815Z AUTO 00000KT 10SM BKN070 18/17 A2999 RMK AO2 T01810167
KGGI 140755Z AUTO 00000KT 10SM CLR 19/17 A3000 RMK AO2 T01850167
KGGI 140735Z AUTO 09003KT 10SM CLR 19/17 A3000 RMK AO2 T01850169
KGGI 140715Z AUTO 00000KT 10SM CLR 19/17 A3000 RMK AO2 T01920171
KGGI 140655Z AUTO 00000KT 10SM CLR 19/17 A3000 RMK AO2 T01890170
KGGI 140635Z AUTO 13003KT 10SM CLR 20/17 A3000 RMK AO2 T02010173
KGGI 140615Z AUTO 11003KT 10SM CLR 19/17 A3000 RMK AO2 T01900173
KGGI 140555Z AUTO 00000KT 10SM CLR 19/18 A3000 RMK AO2 T01910175 10280 20191 403060168
KGGI 140535Z AUTO 00000KT 10SM CLR 19/18 A3000 RMK AO2 T01930175
KGGI 140515Z AUTO 00000KT 10SM CLR 20/18 A3001 RMK AO2 T01950177
KGGI 140455Z AUTO 00000KT 10SM CLR 20/18 A3001 RMK AO2 T01960178
KGGI 140435Z AUTO 00000KT 10SM CLR 20/18 A3001 RMK AO2 T01990181
KGGI 140415Z AUTO 00000KT 10SM CLR 21/18 A3001 RMK AO2 T02120182
KGGI 140355Z AUTO 00000KT 10SM CLR 21/18 A3001 RMK AO2 T02080183
KGGI 140335Z AUTO 11004KT 10SM CLR 22/19 A3001 RMK AO2 T02210186
KGGI 140315Z AUTO 11004KT 10SM CLR 23/19 A3002 RMK AO2 T02270187
KGGI 140255Z AUTO 10004KT 10SM CLR 22/19 A3002 RMK AO2 T02210188
KGGI 140235Z AUTO 09004KT 10SM CLR 22/19 A3002 RMK AO2 T02200190
KGGI 140215Z AUTO 09004KT 10SM CLR 22/19 A3002 RMK AO2 T02230192
KGGI 140155Z AUTO 09004KT 10SM CLR 23/19 A3001 RMK AO2 T02300192
KGGI 140135Z AUTO 10004KT 10SM CLR 24/19 A3001 RMK AO2 T02440190
KGGI 140115Z AUTO 10005KT 10SM CLR 26/19 A3001 RMK AO2 T02550188
KGGI 140055Z AUTO 10005KT 10SM CLR 26/19 A3001 RMK AO2 T02620190
KGGI 140035Z AUTO 10004KT 10SM CLR 27/19 A3001 RMK AO2 T02690194
KGGI 140015Z AUTO 09004KT 10SM CLR 28/20 A3001 RMK AO2 T02750195
KGGI 132355Z AUTO 10004KT 10SM CLR 28/19 A3001 RMK AO2 T02820193 10306 20282
KGGI 132335Z AUTO 10005KT 10SM CLR 29/19 A3001 RMK AO2 T02870187
KGGI 132315Z AUTO 10007KT 10SM CLR 29/18 A3001 RMK AO2 T02910181
KGGI 132255Z AUTO 10005KT 10SM CLR 30/17 A3002 RMK AO2 T02970170
KGGI 132235Z AUTO 11007KT 10SM CLR 30/17 A3002 RMK AO2 T03000173
KGGI 132215Z AUTO 10008KT 10SM CLR 30/17 A3002 RMK AO2 T03010171
KGGI 132155Z AUTO 12007KT 10SM CLR 30/18 A3003 RMK AO2 T03020175
KGGI 132135Z AUTO 12007KT 10SM CLR 30/17 A3003 RMK AO2 T03040172
KGGI 132115Z AUTO 10007KT 10SM CLR 31/18 A3003 RMK AO2 T03060180
KGGI 132055Z AUTO 10008KT 10SM CLR 31/18 A3003 RMK AO2 T03050181
KGGI 132035Z AUTO 11006KT 10SM CLR 31/18 A3004 RMK AO2 T03050179
KGGI 132015Z AUTO 10008KT 10SM CLR 30/18 A3005 RMK AO2 T03030178
KGGI 131955Z AUTO 12007KT 10SM CLR 30/18 A3006 RMK AO2 T03030182
KGGI 131935Z AUTO 14008KT 10SM CLR 30/18 A3007 RMK AO2 T03030182
KGGI 131915Z AUTO 12010KT 10SM CLR 30/18 A3007 RMK AO2 T03040183
KGGI 131855Z AUTO 16007KT 10SM CLR 30/18 A3007 RMK AO2 T03020177
KGGI 131835Z AUTO 14006KT 10SM CLR 30/17 A3008 RMK AO2 T03010170
KGGI 131815Z AUTO 12009KT 10SM CLR 30/17 A3008 RMK AO2 T02990174
KGGI 131755Z AUTO 16007KT 10SM CLR 30/18 A3008 RMK AO2 T02970180 10297 20185
KGGI 131735Z AUTO 15009KT 10SM CLR 30/18 A3009 RMK AO2 T02960175
KGGI 131715Z AUTO 14005KT 10SM CLR 29/18 A3010 RMK AO2 T02930182
KGGI 131655Z AUTO 13008KT 10SM CLR 29/18 A3010 RMK AO2 T02900179
KGGI 131635Z AUTO 15005KT 10SM CLR 29/18 A3010 RMK AO2 T02870182
KGGI 131615Z AUTO 15005KT 10SM CLR 29/19 A3010 RMK AO2 T02850186
KGGI 131555Z AUTO 14007KT 10SM CLR 28/19 A3011 RMK AO2 T02800190
KGGI 131535Z AUTO 18003KT 10SM CLR 28/19 A3011 RMK AO2 T02750190
KGGI 131515Z AUTO 18004KT 10SM CLR 27/19 A3011 RMK AO2 T02680190
KGGI 131455Z AUTO 18004KT 10SM CLR 26/19 A3011 RMK AO2 T02620191
KGGI 131435Z AUTO 18005KT 10SM CLR 25/19 A3012 RMK AO2 T02530194
KGGI 131415Z AUTO 18004KT 10SM CLR 25/20 A3012 RMK AO2 T02460198
KGGI 131355Z AUTO 17005KT 10SM CLR 24/20 A3013 RMK AO2 T02380201
KGGI 131335Z AUTO 16003KT 10SM CLR 23/20 A3013 RMK AO2 T02280195
KGGI 131315Z AUTO 00000KT 10SM CLR 22/19 A3012 RMK AO2 T02150186
KGGI 131255Z AUTO 00000KT 10SM CLR 21/18 A3013 RMK AO2 T02070180
KGGI 131235Z AUTO 00000KT 10SM CLR 20/18 A3012 RMK AO2 T02010178
KGGI 131215Z AUTO 00000KT 10SM CLR 19/17 A3012 RMK AO2 T01910172
KGGI 131155Z AUTO 00000KT 10SM CLR 18/17 A3012 RMK AO2 T01820165 10205 20168
KGGI 131135Z AUTO 15003KT 10SM CLR 18/17 A3012 RMK AO2 T01830165
KGGI 131115Z AUTO 00000KT 10SM CLR 18/17 A3012 RMK AO2 T01800165
KGGI 131055Z AUTO 13003KT 10SM CLR 18/17 A3011 RMK AO2 T01800167
KGGI 131035Z AUTO 12003KT 7SM CLR 17/16 A3011 RMK AO2 T01700160
KGGI 131015Z AUTO 00000KT 10SM CLR 17/16 A3012 RMK AO2 T01720162
KGGI 130955Z AUTO 00000KT 7SM CLR 17/16 A3012 RMK AO2 T01710158
KGGI 130935Z AUTO 00000KT 10SM CLR 19/17 A3012 RMK AO2 T01850168
KGGI 130915Z AUTO 00000KT 7SM CLR 18/16 A3012 RMK AO2 T01760163
KGGI 130855Z AUTO 00000KT 10SM CLR 19/17 A3012 RMK AO2 T01850166
KGGI 130835Z AUTO 12003KT 10SM CLR 19/17 A3011 RMK AO2 T01870168
KGGI 130815Z AUTO 14003KT 10SM CLR 20/17 A3012 RMK AO2 T01950170
KGGI 130755Z AUTO 00000KT 10SM CLR 20/17 A3011 RMK AO2 T02010174